Авиационная погода в Игнатьево

СКИДКИ НА СМАРТФОНЫ!

Регион: 
Погода METAR: 
UHBB 190100Z 34002MPS 9999 FEW033CB 18/13 Q1000 R36/090060 NOSIG RMK QFE733/0978
Время наблюдения
2022-08-19T01:00:00Z
Температура C
18.0
Точка росы
13.0
Направление ветра
340
Скорость ветра (узлы)
4
Метео видимость
6.21
Облачность
FEW
Нижняя граница облачности (футы)
3300
Явления погоды
Условия полета
VFR
Аэропорт подробнее: 
FEW – незначительная облачность;

Скидки на навигаторы!